Time;durP1;ratioP1;P1;durP2;ratioP2;P2;SDS_P1;SDS_P2;PMS_P1;PMS_P2;Temp;Humidity;BMP_temperature;BMP_pressure;BME280_temperature;BME280_humidity;BME280_pressure;Samples;Min_cycle;Max_cycle;Signal;HPM_P1;HPM_P2
2022/09/24 00:00:18;;;;;;;69.13;59.88;;;;;20.10;100228.00;;;;2077136;28;20255;-52
2022/09/24 00:01:21;;;;;;;68.10;59.43;;;;;20.10;100229.00;;;;2078000;28;20205;-52
2022/09/24 00:02:21;;;;;;;66.30;58.17;;;;;20.10;100228.00;;;;2077975;28;20214;-54
2022/09/24 00:03:23;;;;;;;80.70;66.00;;;;;20.20;100224.00;;;;2077972;28;20297;-55
2022/09/24 00:04:24;;;;;;;75.00;62.53;;;;;20.30;100230.00;;;;2078752;28;20586;-54
2022/09/24 00:05:24;;;;;;;75.63;63.53;;;;;20.30;100222.00;;;;2078781;28;20206;-54
2022/09/24 00:06:26;;;;;;;69.90;59.17;;;;;20.20;100225.00;;;;2077136;28;20229;-54
2022/09/24 00:07:26;;;;;;;64.28;55.42;;;;;20.20;100229.00;;;;2069995;28;20229;-53
2022/09/24 00:08:26;;;;;;;66.17;56.57;;;;;20.20;100227.00;;;;2070591;28;20226;-53
2022/09/24 00:09:27;;;;;;;59.50;52.17;;;;;20.10;100237.00;;;;2076378;28;20216;-52
2022/09/24 00:10:27;;;;;;;59.73;50.80;;;;;20.10;100223.00;;;;2078357;28;20202;-52
2022/09/24 00:11:27;;;;;;;60.90;53.10;;;;;20.10;100247.00;;;;2078596;28;20691;-54
2022/09/24 00:12:28;;;;;;;57.40;49.50;;;;;20.10;100226.00;;;;2078695;28;20685;-53
2022/09/24 00:13:28;;;;;;;59.37;51.43;;;;;20.10;100223.00;;;;2078937;28;20237;-54
2022/09/24 00:14:29;;;;;;;55.87;46.60;;;;;20.10;100216.00;;;;2078642;28;20284;-54
2022/09/24 00:15:30;;;;;;;55.67;47.70;;;;;20.10;100221.00;;;;2078588;28;20839;-54
2022/09/24 00:16:32;;;;;;;51.92;45.20;;;;;20.10;100215.00;;;;2078653;28;20712;-53
2022/09/24 00:17:32;;;;;;;60.58;47.85;;;;;20.00;100224.00;;;;2078088;28;20695;-53
2022/09/24 00:18:33;;;;;;;50.70;44.30;;;;;20.10;100218.00;;;;2078973;28;20325;-53
2022/09/24 00:19:33;;;;;;;50.60;45.20;;;;;20.10;100218.00;;;;2078458;28;20956;-53
2022/09/24 00:20:34;;;;;;;54.13;44.67;;;;;20.10;100210.00;;;;2078667;28;20645;-53
2022/09/24 00:21:34;;;;;;;51.00;44.83;;;;;20.10;100216.00;;;;2078718;28;20219;-52
2022/09/24 00:22:35;;;;;;;51.57;43.70;;;;;20.10;100211.00;;;;2078648;28;20270;-53
2022/09/24 00:23:35;;;;;;;48.20;41.03;;;;;20.10;100212.00;;;;2078612;28;20336;-53
2022/09/24 00:27:13;;;;;;;49.60;42.55;;;;;20.10;100221.00;;;;2078326;28;20761;-53
2022/09/24 00:28:13;;;;;;;47.00;41.83;;;;;20.10;100215.00;;;;2069159;28;20222;-53
2022/09/24 00:29:17;;;;;;;48.97;42.47;;;;;20.00;100217.00;;;;2061827;28;20282;-54
2022/09/24 00:30:17;;;;;;;45.67;40.88;;;;;20.10;100216.00;;;;2069846;28;20210;-53
2022/09/24 00:31:17;;;;;;;45.03;40.33;;;;;20.00;100216.00;;;;2070839;28;20225;-53
2022/09/24 00:32:17;;;;;;;45.80;40.80;;;;;20.00;100214.00;;;;2078788;28;20205;-54
2022/09/24 00:33:18;;;;;;;43.90;38.70;;;;;20.00;100221.00;;;;2078573;28;20210;-54
2022/09/24 00:34:18;;;;;;;45.00;39.47;;;;;20.00;100220.00;;;;2078572;28;20210;-53
2022/09/24 00:35:19;;;;;;;42.80;38.10;;;;;20.00;100222.00;;;;2077755;28;20234;-53
2022/09/24 00:36:20;;;;;;;46.73;39.83;;;;;20.00;100226.00;;;;2077785;28;20220;-54
2022/09/24 00:37:20;;;;;;;43.83;39.03;;;;;20.00;100220.00;;;;2077812;28;20555;-54
2022/09/24 00:38:20;;;;;;;41.53;37.00;;;;;20.00;100220.00;;;;2078590;28;20305;-53
2022/09/24 00:39:21;;;;;;;39.80;35.60;;;;;20.10;100220.00;;;;2071058;28;20206;-52
2022/09/24 00:40:29;;;;;;;39.43;35.17;;;;;20.00;100216.00;;;;2077487;28;20217;-53
2022/09/24 00:41:31;;;;;;;42.45;36.40;;;;;20.00;100214.00;;;;2077403;28;20214;-53
2022/09/24 00:42:31;;;;;;;40.85;35.45;;;;;20.00;100221.00;;;;2069326;28;20210;-53
2022/09/24 00:43:33;;;;;;;38.50;34.10;;;;;20.00;100220.00;;;;2077693;28;20217;-53
2022/09/24 00:44:39;;;;;;;39.53;35.33;;;;;20.00;100211.00;;;;2078354;28;20835;-54
2022/09/24 00:45:41;;;;;;;37.42;33.05;;;;;20.00;100206.00;;;;2078639;28;20233;-54
2022/09/24 00:46:41;;;;;;;36.20;32.28;;;;;20.00;100207.00;;;;2074357;28;21021;-53
2022/09/24 00:47:42;;;;;;;39.20;34.37;;;;;20.00;100221.00;;;;2068921;28;20225;-53
2022/09/24 00:48:42;;;;;;;36.47;32.47;;;;;20.00;100206.00;;;;2069841;28;20222;-53
2022/09/24 00:49:43;;;;;;;35.50;31.80;;;;;20.00;100213.00;;;;2069308;28;20607;-54
2022/09/24 00:50:43;;;;;;;37.80;33.23;;;;;20.00;100215.00;;;;2077690;28;20911;-54
2022/09/24 00:51:45;;;;;;;38.10;33.87;;;;;20.00;100214.00;;;;2077909;28;20292;-52
2022/09/24 00:52:51;;;;;;;34.35;30.63;;;;;20.00;100215.00;;;;2077679;28;20217;-52
2022/09/24 00:53:54;;;;;;;32.88;29.38;;;;;20.00;100183.00;;;;2078229;28;20221;-52
2022/09/24 00:54:55;;;;;;;35.38;31.45;;;;;20.00;100213.00;;;;2070766;28;20293;-53
2022/09/24 00:55:55;;;;;;;36.77;29.90;;;;;20.00;100211.00;;;;2069868;28;20272;-53
2022/09/24 00:56:56;;;;;;;34.23;30.50;;;;;19.60;100210.00;;;;2060501;28;20541;-53
2022/09/24 00:57:59;;;;;;;33.83;30.23;;;;;20.00;100224.00;;;;2077135;28;20706;-54
2022/09/24 00:59:01;;;;;;;34.30;30.23;;;;;20.00;100199.00;;;;2067666;28;20871;-53
2022/09/24 01:00:02;;;;;;;32.25;28.60;;;;;20.00;100213.00;;;;2045787;28;20247;-53
2022/09/24 01:01:04;;;;;;;32.25;28.73;;;;;20.00;100219.00;;;;2070049;28;20214;-53
2022/09/24 01:02:06;;;;;;;35.17;30.50;;;;;20.00;100211.00;;;;2076131;28;20697;-54
2022/09/24 01:03:14;;;;;;;32.10;28.27;;;;;20.00;100208.00;;;;2070773;28;20305;-53
2022/09/24 01:04:16;;;;;;;33.60;30.05;;;;;20.00;100205.00;;;;2074256;28;20217;-54
2022/09/24 01:05:16;;;;;;;30.83;27.63;;;;;20.00;100209.00;;;;2077570;28;20213;-54
2022/09/24 01:06:17;;;;;;;32.27;27.43;;;;;20.00;100215.00;;;;2078410;28;20295;-54
2022/09/24 01:07:17;;;;;;;29.40;26.27;;;;;20.00;100213.00;;;;2077741;28;20237;-54
2022/09/24 01:08:18;;;;;;;30.90;27.53;;;;;20.00;100211.00;;;;2078424;28;20216;-54
2022/09/24 01:09:19;;;;;;;29.30;26.17;;;;;20.00;100212.00;;;;2076434;28;20244;-53
2022/09/24 01:12:21;;;;;;;29.42;26.25;;;;;20.00;100216.00;;;;2057942;28;20313;-53
2022/09/24 01:13:28;;;;;;;29.08;24.75;;;;;20.00;100211.00;;;;2060719;28;20214;-53
2022/09/24 01:15:07;;;;;;;27.52;24.50;;;;;20.00;100230.00;;;;2063225;28;20252;-53
2022/09/24 01:16:35;;;;;;;28.10;25.10;;;;;20.00;100213.00;;;;2077518;28;20221;-54
2022/09/24 01:17:46;;;;;;;26.52;23.67;;;;;20.00;100207.00;;;;2077326;28;20635;-53
2022/09/24 01:19:14;;;;;;;25.65;22.85;;;;;20.00;100207.00;;;;2071905;28;20730;-52
2022/09/24 01:20:39;;;;;;;25.83;23.02;;;;;20.00;100210.00;;;;2060831;28;20212;-54
2022/09/24 01:21:46;;;;;;;25.92;23.15;;;;;20.00;100211.00;;;;2074457;28;20222;-52
2022/09/24 01:22:52;;;;;;;27.45;24.55;;;;;20.00;100214.00;;;;2063980;28;20214;-53
2022/09/24 01:23:58;;;;;;;25.67;22.98;;;;;20.00;100210.00;;;;2069060;28;20607;-53
2022/09/24 01:25:17;;;;;;;23.85;21.33;;;;;20.00;100198.00;;;;2071478;28;20245;-52
2022/09/24 01:26:48;;;;;;;24.88;22.23;;;;;20.00;100211.00;;;;2075934;28;20219;-52
2022/09/24 01:27:57;;;;;;;24.90;22.23;;;;;20.00;100213.00;;;;2073401;28;20225;-53
2022/09/24 01:29:01;;;;;;;24.35;21.85;;;;;20.00;100206.00;;;;2063973;28;20215;-53
2022/09/24 01:30:10;;;;;;;24.27;21.75;;;;;20.00;100197.00;;;;2071015;28;20261;-53
2022/09/24 01:31:31;;;;;;;23.25;20.95;;;;;19.90;100218.00;;;;2071459;28;20233;-53
2022/09/24 01:32:41;;;;;;;24.45;21.88;;;;;19.50;100213.00;;;;2073114;28;20205;-53
2022/09/24 01:33:42;;;;;;;24.25;21.65;;;;;20.00;100217.00;;;;2071260;28;20230;-54
2022/09/24 01:34:57;;;;;;;23.43;21.00;;;;;20.00;100096.00;;;;2070042;28;20222;-53
2022/09/24 01:36:00;;;;;;;23.30;20.90;;;;;20.00;100207.00;;;;2072209;28;20224;-53
2022/09/24 01:37:00;;;;;;;22.10;19.75;;;;;20.00;100181.00;;;;2070633;28;20222;-52
2022/09/24 01:38:12;;;;;;;20.90;18.70;;;;;20.00;100202.00;;;;2061267;28;20254;-54
2022/09/24 01:39:13;;;;;;;21.40;19.30;;;;;20.00;100188.00;;;;2065708;28;20242;-54
2022/09/24 01:40:13;;;;;;;22.40;20.10;;;;;20.00;100195.00;;;;2066229;28;20265;-51
2022/09/24 01:41:14;;;;;;;21.63;19.33;;;;;20.00;100096.00;;;;2076387;28;20457;-51
2022/09/24 01:42:15;;;;;;;22.25;19.85;;;;;20.00;100155.00;;;;2066271;28;20304;-51
2022/09/24 01:43:16;;;;;;;21.17;18.80;;;;;19.50;100190.00;;;;2057802;28;20227;-52
2022/09/24 01:44:17;;;;;;;21.60;18.05;;;;;19.90;100196.00;;;;2066541;28;20218;-52
2022/09/24 01:45:18;;;;;;;21.23;19.02;;;;;20.00;100200.00;;;;2074995;28;20214;-52
2022/09/24 01:46:18;;;;;;;19.60;17.60;;;;;20.00;100191.00;;;;2065504;28;20222;-52
2022/09/24 01:47:32;;;;;;;20.27;17.70;;;;;20.00;100188.00;;;;2073596;28;20230;-53
2022/09/24 01:48:36;;;;;;;19.73;17.73;;;;;20.00;100191.00;;;;2082544;28;20231;-54
2022/09/24 01:49:36;;;;;;;18.88;16.88;;;;;20.00;100194.00;;;;2081665;28;20209;-53
2022/09/24 01:50:45;;;;;;;19.57;17.50;;;;;20.00;100189.00;;;;2081152;28;20221;-51
2022/09/24 01:51:50;;;;;;;20.60;16.83;;;;;20.00;100143.00;;;;2081306;28;20218;-53
2022/09/24 01:53:10;;;;;;;18.88;16.98;;;;;20.00;100119.00;;;;2069127;28;20241;-53
2022/09/24 01:54:31;;;;;;;19.20;17.40;;;;;20.00;100182.00;;;;2075016;28;20216;-51
2022/09/24 01:55:34;;;;;;;20.05;17.75;;;;;20.00;100148.00;;;;2076134;28;20221;-52
2022/09/24 01:56:56;;;;;;;17.58;15.85;;;;;19.90;100166.00;;;;2066087;28;20214;-52
2022/09/24 01:58:02;;;;;;;19.42;17.23;;;;;20.00;100183.00;;;;2067011;28;20217;-53
2022/09/24 01:59:08;;;;;;;17.38;15.60;;;;;19.90;100170.00;;;;2058313;28;20306;-53
2022/09/24 02:00:13;;;;;;;16.60;14.90;;;;;20.00;100181.00;;;;2066316;28;20202;-52
2022/09/24 02:01:20;;;;;;;17.60;15.80;;;;;20.00;100176.00;;;;2063490;28;20237;-52
2022/09/24 02:02:26;;;;;;;20.80;15.05;;;;;19.90;100166.00;;;;2067044;28;20214;-52
2022/09/24 02:03:28;;;;;;;18.02;16.15;;;;;20.00;100181.00;;;;2065019;28;20621;-53
2022/09/24 02:04:29;;;;;;;17.98;16.08;;;;;20.00;100182.00;;;;2063288;28;20219;-53
2022/09/24 02:05:32;;;;;;;16.90;15.17;;;;;20.00;100174.00;;;;2062759;28;20214;-52
2022/09/24 02:06:35;;;;;;;17.08;15.38;;;;;20.00;100180.00;;;;2068705;28;20284;-53
2022/09/24 02:07:38;;;;;;;16.33;14.63;;;;;20.00;100179.00;;;;2074068;28;20428;-53
2022/09/24 02:08:40;;;;;;;16.15;14.63;;;;;20.00;100179.00;;;;2059014;28;20211;-52
2022/09/24 02:09:42;;;;;;;16.13;14.52;;;;;19.90;100168.00;;;;2053286;28;20732;-53
2022/09/24 02:11:16;;;;;;;17.15;14.85;;;;;20.00;100186.00;;;;2070459;28;20724;-53
2022/09/24 02:12:18;;;;;;;15.23;13.65;;;;;20.00;100178.00;;;;2067361;28;20225;-53
2022/09/24 02:13:19;;;;;;;16.02;13.50;;;;;20.00;100169.00;;;;2074600;28;20217;-52
2022/09/24 02:14:19;;;;;;;15.77;14.20;;;;;20.00;100176.00;;;;2078766;28;20674;-52
2022/09/24 02:15:47;;;;;;;16.60;14.90;;;;;20.00;100173.00;;;;2070469;28;20214;-52
2022/09/24 02:16:47;;;;;;;14.63;13.10;;;;;20.00;100177.00;;;;2071080;28;20313;-52
2022/09/24 02:17:50;;;;;;;13.83;12.50;;;;;20.00;100140.00;;;;2077976;28;20221;-52
2022/09/24 02:18:51;;;;;;;15.18;13.57;;;;;20.00;100169.00;;;;2063099;28;20302;-52
2022/09/24 02:19:51;;;;;;;13.75;12.35;;;;;20.00;100169.00;;;;2058963;28;20234;-52
2022/09/24 02:20:52;;;;;;;14.60;13.00;;;;;20.00;100165.00;;;;2078685;28;20676;-52
2022/09/24 02:21:52;;;;;;;14.07;12.67;;;;;20.00;100168.00;;;;2070250;28;20206;-52
2022/09/24 02:22:53;;;;;;;13.13;11.83;;;;;20.00;100172.00;;;;2062638;28;20211;-52
2022/09/24 02:23:57;;;;;;;13.93;12.60;;;;;20.00;100163.00;;;;2070174;28;20218;-52
2022/09/24 02:24:58;;;;;;;14.80;13.23;;;;;20.00;100165.00;;;;2062729;28;20575;-53
2022/09/24 02:26:01;;;;;;;14.05;12.65;;;;;20.00;100158.00;;;;2070418;28;20293;-53
2022/09/24 02:27:01;;;;;;;13.52;12.18;;;;;19.90;100164.00;;;;2078425;28;20201;-53
2022/09/24 02:28:02;;;;;;;13.10;11.77;;;;;20.00;100156.00;;;;2069320;28;20574;-52
2022/09/24 02:29:02;;;;;;;12.93;11.60;;;;;19.90;100157.00;;;;2078359;28;20233;-52
2022/09/24 02:30:04;;;;;;;13.97;12.57;;;;;19.90;100146.00;;;;2063255;28;20207;-53
2022/09/24 02:31:06;;;;;;;12.55;11.35;;;;;19.90;100121.00;;;;2069049;28;20213;-52
2022/09/24 02:32:08;;;;;;;12.45;11.15;;;;;19.50;100158.00;;;;2067713;28;20226;-53
2022/09/24 02:34:19;;;;;;;13.70;12.27;;;;;20.00;100139.00;;;;2062408;28;20207;-53
2022/09/24 02:34:35;;;;;;;14.10;12.60;;;;;20.00;100154.00;;;;2064401;28;20202;-54
2022/09/24 02:35:39;;;;;;;12.68;11.35;;;;;20.00;100156.00;;;;2060857;28;20221;-53
2022/09/24 02:36:40;;;;;;;12.63;10.95;;;;;19.90;100157.00;;;;2065796;28;20199;-53
2022/09/24 02:37:41;;;;;;;17.15;13.13;;;;;20.00;100166.00;;;;2076737;28;20218;-52
2022/09/24 02:38:42;;;;;;;14.95;12.48;;;;;20.10;100154.00;;;;2070257;28;20219;-52
2022/09/24 02:39:42;;;;;;;14.03;12.23;;;;;20.20;100160.00;;;;2070378;28;20242;-52
2022/09/24 02:40:43;;;;;;;15.40;11.30;;;;;20.20;100158.00;;;;2074336;28;20228;-53
2022/09/24 02:41:46;;;;;;;13.83;11.70;;;;;20.10;100169.00;;;;2076208;28;20226;-54
2022/09/24 02:42:49;;;;;;;11.40;10.20;;;;;20.10;100153.00;;;;2069450;28;20226;-52
2022/09/24 02:43:50;;;;;;;12.80;11.50;;;;;20.10;100156.00;;;;2066509;28;20297;-52
2022/09/24 02:44:51;;;;;;;12.40;10.75;;;;;20.00;100158.00;;;;2078569;28;20253;-52
2022/09/24 02:45:51;;;;;;;12.75;10.50;;;;;20.00;100151.00;;;;2078703;28;20205;-51
2022/09/24 02:46:51;;;;;;;11.07;9.97;;;;;20.00;100155.00;;;;2070225;28;20224;-53
2022/09/24 02:47:52;;;;;;;11.37;9.90;;;;;20.00;100155.00;;;;2069935;28;20216;-52
2022/09/24 02:48:53;;;;;;;10.50;9.50;;;;;20.10;100162.00;;;;2084276;28;20304;-52
2022/09/24 02:49:54;;;;;;;12.30;10.27;;;;;20.10;100157.00;;;;2077143;28;20456;-52
2022/09/24 02:50:55;;;;;;;11.15;9.80;;;;;20.00;100150.00;;;;2071288;28;20242;-52
2022/09/24 02:51:55;;;;;;;11.03;9.50;;;;;20.00;100150.00;;;;2071636;28;20585;-52
2022/09/24 02:52:56;;;;;;;10.53;9.53;;;;;20.00;100150.00;;;;2074887;28;21099;-52
2022/09/24 02:53:56;;;;;;;11.23;10.10;;;;;20.00;100148.00;;;;2074700;28;20213;-52
2022/09/24 02:54:57;;;;;;;13.07;10.17;;;;;20.00;100146.00;;;;2071363;28;20225;-52
2022/09/24 02:55:59;;;;;;;12.10;10.30;;;;;20.00;100140.00;;;;2070993;28;20700;-52
2022/09/24 02:57:00;;;;;;;10.80;9.57;;;;;20.00;100145.00;;;;2077611;28;20295;-52
2022/09/24 02:58:00;;;;;;;10.70;9.60;;;;;20.00;100154.00;;;;2078668;28;20665;-52
2022/09/24 02:59:03;;;;;;;11.40;9.60;;;;;20.00;100142.00;;;;2078780;28;20848;-52
2022/09/24 03:00:05;;;;;;;10.65;9.57;;;;;20.00;100146.00;;;;2074566;28;20262;-52
2022/09/24 03:01:05;;;;;;;14.13;9.80;;;;;19.90;100135.00;;;;2074462;28;20218;-52
2022/09/24 03:02:06;;;;;;;10.07;9.07;;;;;20.00;100140.00;;;;2075316;28;20206;-52
2022/09/24 03:03:06;;;;;;;11.03;8.83;;;;;20.00;100137.00;;;;2078258;28;20260;-52
2022/09/24 03:04:06;;;;;;;8.67;7.80;;;;;20.00;100141.00;;;;2073314;28;20211;-53
2022/09/24 03:05:07;;;;;;;11.07;9.90;;;;;20.00;100137.00;;;;2076633;28;20210;-52
2022/09/24 03:06:07;;;;;;;9.80;8.90;;;;;20.00;100163.00;;;;2071014;28;20297;-52
2022/09/24 03:07:09;;;;;;;9.50;8.50;;;;;20.00;100139.00;;;;2074888;28;20243;-52
2022/09/24 03:08:09;;;;;;;9.93;8.93;;;;;20.00;100124.00;;;;2070349;28;20207;-52
2022/09/24 03:09:12;;;;;;;9.77;8.83;;;;;20.00;100133.00;;;;2070471;28;20229;-53
2022/09/24 03:10:12;;;;;;;9.88;8.95;;;;;20.00;100131.00;;;;2073848;28;20360;-52
2022/09/24 03:11:13;;;;;;;9.93;8.93;;;;;20.00;100135.00;;;;2075917;28;20284;-53
2022/09/24 03:12:13;;;;;;;10.23;9.00;;;;;20.00;100137.00;;;;2077417;28;20607;-52
2022/09/24 03:13:13;;;;;;;8.33;7.53;;;;;20.00;100135.00;;;;2077343;28;20217;-52
2022/09/24 03:14:14;;;;;;;8.70;7.80;;;;;20.00;100129.00;;;;2071584;28;20233;-52
2022/09/24 03:15:14;;;;;;;10.23;9.03;;;;;20.00;100136.00;;;;2075026;28;20231;-52
2022/09/24 03:16:15;;;;;;;9.17;8.27;;;;;20.00;100128.00;;;;2073242;28;20225;-52
2022/09/24 03:17:15;;;;;;;8.73;7.83;;;;;20.00;100139.00;;;;2076526;28;20428;-52
2022/09/24 03:18:15;;;;;;;9.00;7.60;;;;;20.00;100136.00;;;;2078521;28;20222;-52
2022/09/24 03:19:16;;;;;;;8.33;7.40;;;;;20.00;100122.00;;;;2074231;28;20217;-52
2022/09/24 03:20:16;;;;;;;8.97;7.50;;;;;19.90;100129.00;;;;2072133;28;20225;-52
2022/09/24 03:21:18;;;;;;;10.40;7.90;;;;;19.90;100124.00;;;;2076307;28;20209;-52
2022/09/24 03:22:18;;;;;;;9.07;8.15;;;;;19.90;100136.00;;;;2070778;28;20240;-52
2022/09/24 03:23:19;;;;;;;9.17;7.73;;;;;19.90;100126.00;;;;2077100;28;20233;-52
2022/09/24 03:24:19;;;;;;;8.70;7.60;;;;;19.90;100125.00;;;;2075100;28;20271;-52
2022/09/24 03:25:20;;;;;;;8.30;7.50;;;;;19.90;100125.00;;;;2076179;28;20213;-53
2022/09/24 03:26:20;;;;;;;9.00;7.97;;;;;20.00;100108.00;;;;2073585;28;20263;-52
2022/09/24 03:27:20;;;;;;;9.10;8.20;;;;;19.90;100118.00;;;;2073799;28;20217;-53
2022/09/24 03:28:21;;;;;;;7.83;7.03;;;;;19.90;100116.00;;;;2076604;28;20217;-52
2022/09/24 03:30:58;;;;;;;9.67;7.90;;;;;20.00;100126.00;;;;2072041;28;20206;-52
2022/09/24 03:31:00;;;;;;;7.93;7.13;;;;;19.90;100120.00;;;;2078163;28;20713;-52
2022/09/24 03:32:00;;;;;;;8.52;7.68;;;;;19.90;100117.00;;;;2075719;28;20217;-52
2022/09/24 03:33:01;;;;;;;8.07;7.27;;;;;19.90;100116.00;;;;2064745;28;20693;-52
2022/09/24 03:34:01;;;;;;;10.17;7.37;;;;;19.90;100114.00;;;;2082243;28;20224;-52
2022/09/24 03:35:01;;;;;;;8.27;7.53;;;;;19.90;100116.00;;;;2079788;28;20210;-53
2022/09/24 03:36:05;;;;;;;8.93;7.10;;;;;19.90;100116.00;;;;2077480;28;20240;-52
2022/09/24 03:37:05;;;;;;;8.10;7.30;;;;;19.90;100111.00;;;;2074793;28;20225;-52
2022/09/24 03:38:06;;;;;;;8.70;7.87;;;;;19.90;100113.00;;;;2073819;28;20270;-53
2022/09/24 03:39:06;;;;;;;7.47;6.77;;;;;19.90;100104.00;;;;2071734;28;20484;-52
2022/09/24 03:40:07;;;;;;;8.23;7.40;;;;;19.90;100104.00;;;;2074852;28;20214;-52
2022/09/24 03:41:08;;;;;;;8.80;7.00;;;;;19.90;100107.00;;;;2078933;28;20221;-53
2022/09/24 03:42:08;;;;;;;7.03;6.40;;;;;19.90;100104.00;;;;2071538;28;20287;-52
2022/09/24 03:43:08;;;;;;;7.60;6.80;;;;;19.90;100100.00;;;;2070738;28;20441;-57
2022/09/24 03:44:09;;;;;;;8.30;7.50;;;;;19.90;100106.00;;;;2074560;28;20300;-56
2022/09/24 03:45:09;;;;;;;8.13;7.23;;;;;19.90;100103.00;;;;2070515;28;20209;-55
2022/09/24 03:46:10;;;;;;;7.53;6.83;;;;;19.90;100109.00;;;;2074085;28;20225;-55
2022/09/24 03:47:10;;;;;;;8.63;7.73;;;;;19.90;100106.00;;;;2071586;28;20207;-52
2022/09/24 03:48:11;;;;;;;8.67;7.00;;;;;19.90;100104.00;;;;2078294;28;20205;-53
2022/09/24 03:49:11;;;;;;;7.87;7.07;;;;;19.90;100099.00;;;;2078322;28;20232;-52
2022/09/24 03:50:11;;;;;;;7.77;7.07;;;;;19.90;100093.00;;;;2074630;28;20202;-52
2022/09/24 03:51:17;;;;;;;7.47;6.67;;;;;19.90;100097.00;;;;2071099;28;20225;-52
2022/09/24 03:52:18;;;;;;;7.93;7.18;;;;;19.40;100126.00;;;;2072755;28;20245;-53
2022/09/24 03:53:18;;;;;;;7.57;6.80;;;;;19.40;100103.00;;;;2079104;28;20216;-52
2022/09/24 03:54:18;;;;;;;6.70;6.10;;;;;19.90;100099.00;;;;2078851;28;20206;-53
2022/09/24 03:55:19;;;;;;;7.50;6.80;;;;;19.90;100100.00;;;;2074268;28;20205;-52
2022/09/24 03:56:19;;;;;;;7.00;6.30;;;;;19.90;100095.00;;;;2076449;28;20212;-52
2022/09/24 03:57:19;;;;;;;7.10;6.37;;;;;19.90;100100.00;;;;2074534;28;20217;-52
2022/09/24 03:58:20;;;;;;;7.10;6.40;;;;;19.90;100103.00;;;;2075208;28;20230;-52
2022/09/24 03:59:20;;;;;;;11.00;7.00;;;;;19.90;100094.00;;;;2074411;28;20248;-52
2022/09/24 04:00:22;;;;;;;6.50;5.83;;;;;19.90;100139.00;;;;2072522;28;20210;-52
2022/09/24 04:01:22;;;;;;;7.28;6.57;;;;;19.90;100109.00;;;;2078220;28;20244;-52
2022/09/24 04:02:23;;;;;;;7.47;6.37;;;;;19.90;100100.00;;;;2071499;28;20857;-52
2022/09/24 04:03:23;;;;;;;6.90;6.30;;;;;19.90;100098.00;;;;2074471;28;20714;-52
2022/09/24 04:04:23;;;;;;;7.10;6.40;;;;;19.90;100096.00;;;;2074550;28;20810;-52
2022/09/24 04:05:24;;;;;;;7.13;6.43;;;;;19.90;100090.00;;;;2074164;28;20213;-52
2022/09/24 04:06:25;;;;;;;6.40;5.80;;;;;19.90;100086.00;;;;2077524;28;20213;-52
2022/09/24 04:07:26;;;;;;;7.63;6.25;;;;;19.90;100095.00;;;;2074053;28;20565;-52
2022/09/24 04:08:26;;;;;;;7.00;6.30;;;;;19.90;100096.00;;;;2076141;28;20237;-52
2022/09/24 04:09:26;;;;;;;7.07;6.37;;;;;19.90;100098.00;;;;2075890;28;20721;-53
2022/09/24 04:10:27;;;;;;;7.30;6.60;;;;;19.90;100094.00;;;;2078630;28;20728;-53
2022/09/24 04:11:28;;;;;;;7.13;6.07;;;;;19.90;100121.00;;;;2070546;28;20698;-52
2022/09/24 04:12:28;;;;;;;6.80;6.10;;;;;19.90;100087.00;;;;2068121;28;20507;-52
2022/09/24 04:13:29;;;;;;;6.93;6.23;;;;;19.90;100091.00;;;;2069792;28;20248;-52
2022/09/24 04:14:29;;;;;;;6.67;5.93;;;;;19.90;100099.00;;;;2077297;28;20311;-52
2022/09/24 04:15:29;;;;;;;6.97;5.90;;;;;19.90;100084.00;;;;2074944;28;20218;-52
2022/09/24 04:16:30;;;;;;;6.20;5.60;;;;;19.90;100094.00;;;;2075047;28;20225;-51
2022/09/24 04:17:30;;;;;;;6.80;6.10;;;;;19.90;100089.00;;;;2077844;28;20690;-52
2022/09/24 04:18:30;;;;;;;7.63;6.10;;;;;19.90;100086.00;;;;2078852;28;20225;-53
2022/09/24 04:19:31;;;;;;;6.70;6.10;;;;;19.90;100090.00;;;;2075155;28;20264;-52
2022/09/24 04:20:31;;;;;;;6.37;5.80;;;;;19.90;100086.00;;;;2071265;28;20214;-52
2022/09/24 04:21:32;;;;;;;6.60;5.90;;;;;19.90;100085.00;;;;2073097;28;20210;-53
2022/09/24 04:22:32;;;;;;;6.77;6.20;;;;;19.90;100085.00;;;;2076991;28;20502;-52
2022/09/24 04:23:33;;;;;;;6.83;6.23;;;;;19.90;100081.00;;;;2071356;28;20807;-52
2022/09/24 04:24:33;;;;;;;7.40;6.33;;;;;19.90;100089.00;;;;2077839;28;20701;-52
2022/09/24 04:25:33;;;;;;;6.60;6.00;;;;;19.90;100085.00;;;;2074118;28;20237;-52
2022/09/24 04:26:34;;;;;;;6.77;6.03;;;;;19.90;100082.00;;;;2069804;28;20221;-52
2022/09/24 04:27:35;;;;;;;6.60;6.00;;;;;19.90;100080.00;;;;2075791;28;20221;-52
2022/09/24 04:28:35;;;;;;;6.75;5.95;;;;;19.90;100084.00;;;;2077960;28;20276;-52
2022/09/24 04:29:36;;;;;;;6.23;5.70;;;;;19.90;100082.00;;;;2071975;28;20217;-52
2022/09/24 04:30:37;;;;;;;6.13;5.53;;;;;19.90;100081.00;;;;2075110;28;20209;-52
2022/09/24 04:31:38;;;;;;;6.60;5.80;;;;;19.90;100089.00;;;;2073163;28;20240;-52
2022/09/24 04:32:39;;;;;;;7.18;6.38;;;;;19.90;100077.00;;;;2070414;28;20490;-52
2022/09/24 04:33:40;;;;;;;6.70;6.00;;;;;19.90;100089.00;;;;2075632;28;20267;-52
2022/09/24 04:34:40;;;;;;;7.83;6.00;;;;;19.90;100081.00;;;;2074349;28;20315;-52
2022/09/24 04:35:40;;;;;;;6.07;5.47;;;;;19.90;100078.00;;;;2071542;28;20214;-52
2022/09/24 04:36:40;;;;;;;5.87;5.37;;;;;19.80;100082.00;;;;2073490;28;20292;-53
2022/09/24 04:37:41;;;;;;;7.07;6.37;;;;;19.90;100082.00;;;;2074121;28;20281;-52
2022/09/24 04:38:42;;;;;;;6.67;6.07;;;;;19.90;100083.00;;;;2078612;28;20252;-53
2022/09/24 04:39:42;;;;;;;6.47;5.60;;;;;19.80;100087.00;;;;2073635;28;20514;-52
2022/09/24 04:40:46;;;;;;;6.40;5.80;;;;;19.90;100083.00;;;;2074393;28;20236;-52
2022/09/24 04:41:46;;;;;;;6.25;5.70;;;;;19.90;100080.00;;;;2076813;28;20213;-52
2022/09/24 04:42:47;;;;;;;6.13;5.37;;;;;19.90;100082.00;;;;2074219;28;20957;-52
2022/09/24 04:43:47;;;;;;;6.90;5.60;;;;;19.90;100082.00;;;;2068471;28;20554;-57
2022/09/24 04:44:47;;;;;;;6.37;5.43;;;;;19.90;100086.00;;;;2071205;28;20304;-54
2022/09/24 04:45:48;;;;;;;8.17;5.67;;;;;19.90;100086.00;;;;2074796;28;20217;-55
2022/09/24 04:46:49;;;;;;;6.43;5.80;;;;;19.90;100080.00;;;;2075902;28;20677;-53
2022/09/24 04:47:56;;;;;;;5.77;5.20;;;;;19.90;100076.00;;;;2069634;28;20222;-54
2022/09/24 04:48:56;;;;;;;7.28;5.97;;;;;19.80;100085.00;;;;2071745;28;21020;-52
2022/09/24 04:50:01;;;;;;;5.70;5.20;;;;;19.90;100083.00;;;;2072593;28;20252;-52
2022/09/24 04:51:02;;;;;;;6.00;5.40;;;;;19.90;100083.00;;;;2071322;28;20882;-52
2022/09/24 04:52:03;;;;;;;6.07;5.47;;;;;19.90;100085.00;;;;2074561;28;20214;-53
2022/09/24 04:53:03;;;;;;;5.90;5.30;;;;;19.90;100086.00;;;;2074920;28;20564;-53
2022/09/24 04:54:04;;;;;;;5.70;5.20;;;;;19.90;100121.00;;;;2078334;28;20220;-52
2022/09/24 04:55:05;;;;;;;6.33;5.73;;;;;19.90;100087.00;;;;2067273;28;20229;-52
2022/09/24 04:56:10;;;;;;;5.90;5.30;;;;;19.90;100080.00;;;;2069859;28;20289;-52
2022/09/24 04:57:13;;;;;;;6.07;5.47;;;;;19.90;100080.00;;;;2075727;28;20536;-52
2022/09/24 04:58:14;;;;;;;5.75;5.15;;;;;19.90;100080.00;;;;2074322;28;20566;-52
2022/09/24 04:59:14;;;;;;;6.73;6.07;;;;;19.90;100079.00;;;;2073560;28;20275;-53
2022/09/24 05:00:16;;;;;;;5.73;5.23;;;;;19.80;100077.00;;;;2075759;28;20213;-52
2022/09/24 05:01:17;;;;;;;6.47;5.65;;;;;19.90;100077.00;;;;2075572;28;20646;-52
2022/09/24 05:02:18;;;;;;;6.30;5.70;;;;;19.80;100081.00;;;;2070340;28;20565;-53
2022/09/24 05:03:20;;;;;;;6.07;5.47;;;;;19.80;100085.00;;;;2078427;28;20262;-52
2022/09/24 05:04:20;;;;;;;6.20;5.55;;;;;19.90;100083.00;;;;2076180;28;20674;-52
2022/09/24 05:05:20;;;;;;;5.80;5.30;;;;;19.90;100081.00;;;;2070117;28;20211;-52
2022/09/24 05:06:21;;;;;;;6.93;5.20;;;;;19.90;100078.00;;;;2073664;28;20210;-52
2022/09/24 05:07:21;;;;;;;8.53;6.27;;;;;19.90;100076.00;;;;2073588;28;20217;-54
2022/09/24 05:08:21;;;;;;;5.40;4.90;;;;;19.80;100084.00;;;;2076461;28;20673;-55
2022/09/24 05:09:22;;;;;;;6.87;5.53;;;;;19.80;100079.00;;;;2072302;28;20586;-53
2022/09/24 05:10:26;;;;;;;6.50;5.90;;;;;19.80;100066.00;;;;2070321;28;20212;-54